createdAt,value
2023-02-19T00:00:59.815Z,14.22
2023-02-19T00:03:28.045Z,14.23
2023-02-19T00:05:56.469Z,14.16
2023-02-19T00:08:28.093Z,14.03
2023-02-19T00:11:02.361Z,13.86
2023-02-19T00:13:31.772Z,13.77
2023-02-19T00:16:09.664Z,13.81
2023-02-19T00:18:47.155Z,13.64
2023-02-19T00:21:25.399Z,13.77
2023-02-19T00:23:56.540Z,13.64
2023-02-19T00:26:29.010Z,13.58
2023-02-19T00:28:59.662Z,13.54
2023-02-19T00:31:41.342Z,13.45
2023-02-19T00:34:11.725Z,13.40
2023-02-19T00:36:42.880Z,13.40
2023-02-19T00:39:18.085Z,13.40
2023-02-19T00:41:54.160Z,13.50
2023-02-19T00:44:22.450Z,13.39
2023-02-19T00:47:04.446Z,13.35
2023-02-19T00:49:36.264Z,13.28
2023-02-19T00:52:09.827Z,13.29
2023-02-19T00:54:39.648Z,13.37
2023-02-19T00:57:11.458Z,13.35
2023-02-19T00:59:40.941Z,13.41
2023-02-19T01:02:15.284Z,13.39
2023-02-19T01:04:49.118Z,13.35
2023-02-19T01:07:22.272Z,13.54
2023-02-19T01:09:58.662Z,13.31
2023-02-19T01:12:31.023Z,13.49
2023-02-19T01:15:02.113Z,13.58
2023-02-19T01:17:43.342Z,13.42
2023-02-19T01:20:19.790Z,13.29
2023-02-19T01:22:51.404Z,13.63
2023-02-19T01:25:23.079Z,13.54
2023-02-19T01:27:54.781Z,13.44
2023-02-19T01:30:25.659Z,13.60
2023-02-19T01:33:10.072Z,13.63
2023-02-19T01:35:40.613Z,13.64
2023-02-19T01:38:17.288Z,13.77
2023-02-19T01:40:45.556Z,13.51
2023-02-19T01:43:25.934Z,13.52
2023-02-19T01:45:55.203Z,13.44
2023-02-19T01:48:36.588Z,13.54
2023-02-19T01:51:14.395Z,13.43
2023-02-19T01:53:49.917Z,13.25
2023-02-19T01:56:28.066Z,13.30
2023-02-19T01:58:59.209Z,13.27
2023-02-19T02:01:29.880Z,13.29
2023-02-19T02:04:04.439Z,13.22
2023-02-19T02:06:36.941Z,13.30
2023-02-19T02:09:24.519Z,13.13
2023-02-19T02:11:56.482Z,13.33
2023-02-19T02:14:31.441Z,13.16
2023-02-19T02:17:11.835Z,13.13
2023-02-19T02:20:09.400Z,13.28
2023-02-19T02:22:50.065Z,13.34
2023-02-19T02:25:45.551Z,13.08
2023-02-19T02:28:30.390Z,13.23
2023-02-19T02:31:20.370Z,13.23
2023-02-19T02:34:04.626Z,13.05
2023-02-19T02:36:36.756Z,13.00
2023-02-19T02:39:10.462Z,13.05
2023-02-19T02:42:26.439Z,13.07
2023-02-19T02:45:57.948Z,12.93
2023-02-19T02:48:38.831Z,12.74
2023-02-19T02:51:17.033Z,12.73
2023-02-19T02:54:27.132Z,12.44
2023-02-19T02:57:02.732Z,12.51
2023-02-19T02:59:39.005Z,12.43
2023-02-19T03:02:11.818Z,12.29
2023-02-19T03:05:03.974Z,12.14
2023-02-19T03:07:37.588Z,12.18
2023-02-19T03:10:17.591Z,11.93
2023-02-19T03:13:10.258Z,11.99
2023-02-19T03:16:06.325Z,12.03
2023-02-19T03:18:56.364Z,11.97
2023-02-19T03:21:29.770Z,12.02
2023-02-19T03:24:17.824Z,11.97
2023-02-19T03:27:02.977Z,11.92
2023-02-19T03:29:39.529Z,11.96
2023-02-19T03:32:13.661Z,12.10
2023-02-19T03:34:48.562Z,12.06
2023-02-19T03:37:28.989Z,12.00
2023-02-19T03:40:05.615Z,12.10
2023-02-19T03:42:45.454Z,12.01
2023-02-19T03:45:44.750Z,12.19
2023-02-19T03:48:36.600Z,12.04
2023-02-19T03:51:34.616Z,11.96
2023-02-19T03:54:17.283Z,11.87
2023-02-19T03:56:53.499Z,11.99
2023-02-19T03:59:29.796Z,11.89
2023-02-19T04:02:03.600Z,11.92
2023-02-19T04:04:38.880Z,11.99
2023-02-19T04:07:18.345Z,12.01
2023-02-19T04:09:54.940Z,11.97
2023-02-19T04:12:24.382Z,11.90
2023-02-19T04:15:00.848Z,11.91
2023-02-19T04:17:32.650Z,11.91
2023-02-19T04:20:05.555Z,11.96
2023-02-19T04:22:36.410Z,11.96
2023-02-19T04:25:11.447Z,11.99
2023-02-19T04:27:40.476Z,12.19
2023-02-19T04:30:21.583Z,12.12
2023-02-19T04:32:52.197Z,12.09
2023-02-19T04:35:23.027Z,11.93
2023-02-19T04:37:57.696Z,12.06
2023-02-19T04:40:41.890Z,12.11
2023-02-19T04:43:19.903Z,12.08
2023-02-19T04:45:54.018Z,12.15
2023-02-19T04:48:25.674Z,12.10
2023-02-19T04:50:57.578Z,12.08
2023-02-19T04:53:29.112Z,12.04
2023-02-19T04:56:07.396Z,11.87
2023-02-19T04:58:38.766Z,11.88
2023-02-19T05:01:11.264Z,12.13
2023-02-19T05:03:45.758Z,12.10
2023-02-19T05:06:18.174Z,11.74
2023-02-19T05:08:46.834Z,11.81
2023-02-19T05:11:31.650Z,11.94
2023-02-19T05:14:02.691Z,11.76
2023-02-19T05:16:33.671Z,11.68
2023-02-19T05:19:02.016Z,11.72
2023-02-19T05:21:30.148Z,11.81
2023-02-19T05:24:01.780Z,11.64
2023-02-19T05:26:38.310Z,11.62
2023-02-19T05:29:17.967Z,11.44
2023-02-19T05:31:49.646Z,11.45
2023-02-19T05:34:26.217Z,11.54
2023-02-19T05:36:57.931Z,11.57
2023-02-19T05:39:28.282Z,11.50
2023-02-19T05:42:11.403Z,11.62
2023-02-19T05:44:49.169Z,11.46
2023-02-19T05:47:19.456Z,11.47
2023-02-19T05:49:48.797Z,11.64
2023-02-19T05:52:26.629Z,11.60
2023-02-19T05:54:57.226Z,11.54
2023-02-19T05:57:30.967Z,11.71
2023-02-19T06:00:02.490Z,11.54
2023-02-19T06:02:53.239Z,11.62
2023-02-19T06:05:25.265Z,11.74
2023-02-19T06:07:54.018Z,11.66
2023-02-19T06:10:23.768Z,11.70
2023-02-19T06:13:05.605Z,11.72
2023-02-19T06:15:39.676Z,11.71
2023-02-19T06:18:18.993Z,11.69
2023-02-19T06:20:52.537Z,11.72
2023-02-19T06:23:29.089Z,11.81
2023-02-19T06:26:12.354Z,11.70
2023-02-19T06:28:50.922Z,11.79
2023-02-19T06:31:22.435Z,11.76
2023-02-19T06:33:51.915Z,11.74
2023-02-19T06:36:31.809Z,11.91
2023-02-19T06:39:14.876Z,11.82
2023-02-19T06:41:48.799Z,11.86
2023-02-19T06:44:27.420Z,11.90
2023-02-19T06:46:59.271Z,11.98
2023-02-19T06:49:35.452Z,11.99
2023-02-19T06:52:06.011Z,12.03
2023-02-19T06:54:34.986Z,12.03
2023-02-19T06:57:06.041Z,12.06
2023-02-19T06:59:43.858Z,12.12
2023-02-19T07:02:14.291Z,12.14
2023-02-19T07:04:43.177Z,12.05
2023-02-19T07:07:12.904Z,12.10
2023-02-19T07:09:42.204Z,12.13
2023-02-19T07:12:12.739Z,12.10
2023-02-19T07:14:45.101Z,12.08
2023-02-19T07:17:29.395Z,12.15
2023-02-19T07:20:00.562Z,12.09
2023-02-19T07:22:29.953Z,12.11
2023-02-19T07:25:00.730Z,12.09
2023-02-19T07:27:32.254Z,12.17
2023-02-19T07:30:07.344Z,12.13
2023-02-19T07:32:39.041Z,12.19
2023-02-19T07:35:08.726Z,12.15
2023-02-19T07:37:38.558Z,12.15
2023-02-19T07:40:08.027Z,12.19
2023-02-19T07:42:42.007Z,12.19
2023-02-19T07:45:27.340Z,12.12
2023-02-19T07:48:00.655Z,12.13
2023-02-19T07:50:31.720Z,12.16
2023-02-19T07:53:08.475Z,12.04
2023-02-19T07:55:39.878Z,12.08
2023-02-19T07:58:09.455Z,12.02
2023-02-19T08:00:39.429Z,12.09
2023-02-19T08:03:09.012Z,12.17
2023-02-19T08:05:40.230Z,11.98
2023-02-19T08:08:11.126Z,12.06
2023-02-19T08:11:00.418Z,11.95
2023-02-19T08:13:33.991Z,12.01
2023-02-19T08:16:42.990Z,12.13
2023-02-19T08:19:15.658Z,12.08
2023-02-19T08:21:49.349Z,12.11
2023-02-19T08:24:26.004Z,11.98
2023-02-19T08:26:59.267Z,12.03
2023-02-19T08:29:28.843Z,12.03
2023-02-19T08:32:08.065Z,12.02
2023-02-19T08:34:37.136Z,12.08
2023-02-19T08:37:14.069Z,12.14
2023-02-19T08:39:43.035Z,12.24
2023-02-19T08:42:14.352Z,12.18
2023-02-19T08:44:43.555Z,12.25
2023-02-19T08:47:26.525Z,12.25
2023-02-19T08:49:57.138Z,12.15
2023-02-19T08:52:27.047Z,11.98
2023-02-19T08:55:00.594Z,12.00
2023-02-19T08:57:30.440Z,12.05
2023-02-19T08:59:59.110Z,12.19
2023-02-19T09:02:30.375Z,12.30
2023-02-19T09:05:00.479Z,12.28
2023-02-19T09:07:31.932Z,12.64
2023-02-19T09:10:02.735Z,12.61
2023-02-19T09:12:33.562Z,12.85
2023-02-19T09:15:09.969Z,12.71
2023-02-19T09:17:41.067Z,12.76
2023-02-19T09:20:10.699Z,12.69
2023-02-19T09:22:43.272Z,12.71
2023-02-19T09:25:12.074Z,12.68
2023-02-19T09:27:42.428Z,12.68
2023-02-19T09:30:14.073Z,12.57
2023-02-19T09:32:45.108Z,12.56
2023-02-19T09:35:14.317Z,12.56
2023-02-19T09:37:45.749Z,12.51
2023-02-19T09:40:15.147Z,12.60
2023-02-19T09:42:45.130Z,12.67
2023-02-19T09:45:33.176Z,12.93
2023-02-19T09:48:06.576Z,12.98
2023-02-19T09:50:45.061Z,12.98
2023-02-19T09:53:22.702Z,12.92
2023-02-19T09:55:59.282Z,12.94
2023-02-19T09:58:30.879Z,12.96
2023-02-19T10:01:06.085Z,13.03
2023-02-19T10:03:50.379Z,13.22
2023-02-19T10:06:25.093Z,13.21
2023-02-19T10:09:15.485Z,13.16
2023-02-19T10:11:44.812Z,13.24
2023-02-19T10:14:18.353Z,13.28
2023-02-19T10:16:57.330Z,13.48
2023-02-19T10:19:29.400Z,13.42
2023-02-19T10:22:00.470Z,13.51
2023-02-19T10:24:31.436Z,13.78
2023-02-19T10:27:05.050Z,13.62
2023-02-19T10:29:43.471Z,13.71
2023-02-19T10:32:24.466Z,13.78
2023-02-19T10:35:11.131Z,13.97
2023-02-19T10:37:48.011Z,13.69
2023-02-19T10:40:32.269Z,13.95
2023-02-19T10:43:13.397Z,14.01
2023-02-19T10:45:49.716Z,13.95
2023-02-19T10:48:28.098Z,13.85
2023-02-19T10:51:10.767Z,13.92
2023-02-19T10:53:45.790Z,14.05
2023-02-19T10:56:18.306Z,14.05
2023-02-19T10:58:50.137Z,14.26
2023-02-19T11:01:29.342Z,14.05
2023-02-19T11:04:25.499Z,14.29
2023-02-19T11:07:00.798Z,14.54
2023-02-19T11:09:31.225Z,14.57
2023-02-19T11:12:01.406Z,14.46
2023-02-19T11:14:36.581Z,14.47
2023-02-19T11:17:12.871Z,14.39
2023-02-19T11:19:50.085Z,14.37
2023-02-19T11:22:34.500Z,14.61
2023-02-19T11:25:10.186Z,14.75
2023-02-19T11:28:10.570Z,14.82
2023-02-19T11:30:43.460Z,14.74
2023-02-19T11:33:32.775Z,15.07
2023-02-19T11:36:31.838Z,14.83
2023-02-19T11:39:27.462Z,14.76
2023-02-19T11:42:08.108Z,14.90
2023-02-19T11:44:49.137Z,14.82
2023-02-19T11:48:14.360Z,14.71
2023-02-19T11:51:15.797Z,14.44
2023-02-19T11:53:52.233Z,14.24
2023-02-19T11:56:34.620Z,14.13
2023-02-19T11:59:06.954Z,13.88
2023-02-19T12:02:02.313Z,13.82
2023-02-19T12:05:25.854Z,13.50
2023-02-19T12:08:34.345Z,13.41
2023-02-19T12:11:15.746Z,12.90
2023-02-19T12:14:05.897Z,12.83
2023-02-19T12:16:39.909Z,12.81
2023-02-19T12:19:42.111Z,12.66
2023-02-19T12:22:27.623Z,12.79
2023-02-19T12:25:34.679Z,12.75
2023-02-19T12:28:45.692Z,12.87
2023-02-19T12:31:53.870Z,13.10
2023-02-19T12:34:46.410Z,13.02
2023-02-19T12:37:33.366Z,13.28
2023-02-19T12:40:24.010Z,13.50
2023-02-19T12:43:06.776Z,13.33
2023-02-19T12:45:49.036Z,13.32
2023-02-19T12:48:37.934Z,13.59
2023-02-19T12:51:22.191Z,13.41
2023-02-19T12:53:55.800Z,13.61
2023-02-19T12:56:28.013Z,13.63
2023-02-19T12:59:04.437Z,13.49
2023-02-19T13:01:36.551Z,13.52
2023-02-19T13:04:32.093Z,13.48
2023-02-19T13:07:32.243Z,13.41
2023-02-19T13:10:26.137Z,13.49
2023-02-19T13:12:59.499Z,13.54
2023-02-19T13:15:36.179Z,13.44
2023-02-19T13:18:15.636Z,13.44
2023-02-19T13:20:51.020Z,13.45
2023-02-19T13:23:50.738Z,13.49
2023-02-19T13:27:14.054Z,13.65
2023-02-19T13:30:04.984Z,13.69
2023-02-19T13:32:51.046Z,13.81
2023-02-19T13:35:40.728Z,13.63
2023-02-19T13:38:29.712Z,13.61
2023-02-19T13:41:01.697Z,13.48
2023-02-19T13:43:35.885Z,13.44
2023-02-19T13:46:12.543Z,13.43
2023-02-19T13:48:47.074Z,13.52
2023-02-19T13:51:59.161Z,13.22
2023-02-19T13:54:36.908Z,13.02
2023-02-19T13:57:49.070Z,12.78
2023-02-19T14:00:52.362Z,12.68
2023-02-19T14:03:41.413Z,12.45
2023-02-19T14:06:22.197Z,12.56
2023-02-19T14:08:56.302Z,12.52
2023-02-19T14:12:04.095Z,12.49
2023-02-19T14:14:57.961Z,12.45
2023-02-19T14:17:30.437Z,12.42
2023-02-19T14:20:09.122Z,12.46
2023-02-19T14:23:18.385Z,12.42
2023-02-19T14:25:59.808Z,12.43
2023-02-19T14:28:39.690Z,12.27
2023-02-19T14:31:35.830Z,12.20
2023-02-19T14:34:10.562Z,12.09
2023-02-19T14:36:50.791Z,12.14
2023-02-19T14:39:33.273Z,11.87
2023-02-19T14:42:12.328Z,11.87
2023-02-19T14:45:03.172Z,11.85
2023-02-19T14:47:49.104Z,11.92
2023-02-19T14:50:30.243Z,11.81
2023-02-19T14:53:04.856Z,11.84
2023-02-19T14:55:41.184Z,11.83
2023-02-19T14:58:24.042Z,11.69
2023-02-19T15:01:03.120Z,11.55
2023-02-19T15:03:42.495Z,11.47
2023-02-19T15:06:23.160Z,11.53
2023-02-19T15:09:00.196Z,11.50
2023-02-19T15:11:43.740Z,11.47
2023-02-19T15:14:26.091Z,11.39
2023-02-19T15:17:00.803Z,11.26
2023-02-19T15:19:48.118Z,11.19
2023-02-19T15:22:35.169Z,10.97
2023-02-19T15:25:18.403Z,10.85
2023-02-19T15:27:50.109Z,10.88
2023-02-19T15:30:24.655Z,10.84
2023-02-19T15:32:58.141Z,10.84
2023-02-19T15:35:37.419Z,10.75
2023-02-19T15:38:17.472Z,10.81
2023-02-19T15:40:53.778Z,10.74
2023-02-19T15:43:31.592Z,10.54
2023-02-19T15:46:06.530Z,10.82
2023-02-19T15:48:40.361Z,10.87
2023-02-19T15:51:34.557Z,10.49
2023-02-19T15:54:17.395Z,10.68
2023-02-19T15:56:53.677Z,10.49
2023-02-19T15:59:31.988Z,10.49
2023-02-19T16:02:13.118Z,10.38
2023-02-19T16:04:53.505Z,10.43
2023-02-19T16:07:40.247Z,10.37
2023-02-19T16:10:24.552Z,10.32
2023-02-19T16:13:10.783Z,9.85
2023-02-19T16:15:44.762Z,9.78
2023-02-19T16:18:30.641Z,9.86
2023-02-19T16:21:00.868Z,9.97
2023-02-19T16:23:41.497Z,9.98
2023-02-19T16:26:11.440Z,10.07
2023-02-19T16:28:45.174Z,9.76
2023-02-19T16:31:17.407Z,9.69
2023-02-19T16:33:50.919Z,9.66
2023-02-19T16:36:42.091Z,9.84
2023-02-19T16:39:33.316Z,9.93
2023-02-19T16:42:16.533Z,9.78
2023-02-19T16:44:49.253Z,10.00
2023-02-19T16:47:51.962Z,9.95
2023-02-19T16:50:30.828Z,9.91
2023-02-19T16:53:23.458Z,9.73
2023-02-19T16:56:09.093Z,9.77
2023-02-19T16:58:48.900Z,9.90
2023-02-19T17:01:26.002Z,9.97
2023-02-19T17:04:05.818Z,10.05
2023-02-19T17:06:48.805Z,9.88
2023-02-19T17:09:26.518Z,9.73
2023-02-19T17:12:05.551Z,9.76
2023-02-19T17:14:44.518Z,9.84
2023-02-19T17:17:25.580Z,9.54
2023-02-19T17:19:56.111Z,9.65
2023-02-19T17:22:31.640Z,9.61
2023-02-19T17:25:02.321Z,9.29
2023-02-19T17:27:48.905Z,9.35
2023-02-19T17:30:31.581Z,9.37
2023-02-19T17:33:04.095Z,9.56
2023-02-19T17:35:40.127Z,9.30
2023-02-19T17:38:22.478Z,9.46
2023-02-19T17:41:00.402Z,9.61
2023-02-19T17:43:36.735Z,9.41
2023-02-19T17:46:10.382Z,9.11
2023-02-19T17:48:50.384Z,9.32
2023-02-19T17:51:28.871Z,9.49
2023-02-19T17:54:03.375Z,9.26
2023-02-19T17:56:51.380Z,9.32
2023-02-19T17:59:33.215Z,9.25
2023-02-19T18:02:11.436Z,9.37
2023-02-19T18:04:42.130Z,9.37
2023-02-19T18:07:27.945Z,9.36
2023-02-19T18:10:13.761Z,9.60
2023-02-19T18:12:49.979Z,9.54
2023-02-19T18:15:47.428Z,9.55
2023-02-19T18:18:20.031Z,9.51
2023-02-19T18:20:51.555Z,9.43
2023-02-19T18:23:34.638Z,9.38
2023-02-19T18:26:06.024Z,9.49
2023-02-19T18:28:37.072Z,9.56
2023-02-19T18:31:28.227Z,9.40
2023-02-19T18:34:10.510Z,9.50
2023-02-19T18:36:50.575Z,9.69
2023-02-19T18:39:31.073Z,9.67
2023-02-19T18:42:02.789Z,9.48
2023-02-19T18:44:38.120Z,9.48
2023-02-19T18:47:25.412Z,9.60
2023-02-19T18:49:59.052Z,9.58
2023-02-19T18:52:40.816Z,9.79
2023-02-19T18:55:18.608Z,9.50
2023-02-19T18:58:07.014Z,9.62
2023-02-19T19:00:46.730Z,9.57
2023-02-19T19:03:33.390Z,9.47
2023-02-19T19:09:05.166Z,9.70
2023-02-19T19:11:48.674Z,9.77
2023-02-19T19:14:37.836Z,9.71
2023-02-19T19:17:12.941Z,9.52
2023-02-19T19:20:15.761Z,9.55
2023-02-19T19:22:51.887Z,9.47
2023-02-19T19:25:34.938Z,9.73
2023-02-19T19:28:18.911Z,9.58
2023-02-19T19:30:55.182Z,9.70
2023-02-19T19:33:28.000Z,9.68
2023-02-19T19:36:10.449Z,9.85
2023-02-19T19:38:41.858Z,9.63
2023-02-19T19:41:38.615Z,9.61
2023-02-19T19:44:11.025Z,9.50
2023-02-19T19:46:48.521Z,9.58
2023-02-19T19:49:23.538Z,9.64
2023-02-19T19:52:11.056Z,9.53
2023-02-19T19:54:54.502Z,9.64
2023-02-19T19:57:30.334Z,9.57
2023-02-19T20:00:07.219Z,9.77
2023-02-19T20:03:06.285Z,9.56
2023-02-19T20:05:48.139Z,9.61
2023-02-19T20:08:33.446Z,9.54
2023-02-19T20:11:15.481Z,9.57
2023-02-19T20:13:57.501Z,9.73
2023-02-19T20:16:36.693Z,9.73
2023-02-19T20:19:10.485Z,9.46
2023-02-19T20:21:44.466Z,9.44
2023-02-19T20:27:27.729Z,9.73
2023-02-19T20:30:11.382Z,9.28
2023-02-19T20:32:50.632Z,9.07
2023-02-19T20:35:26.564Z,9.06
2023-02-19T20:37:59.991Z,9.28
2023-02-19T20:40:52.477Z,8.83
2023-02-19T20:43:24.738Z,8.83
2023-02-19T20:46:01.434Z,8.93
2023-02-19T20:48:32.229Z,8.91
2023-02-19T20:51:09.652Z,8.69
2023-02-19T20:53:44.871Z,8.52
2023-02-19T20:56:22.528Z,8.52
2023-02-19T20:58:53.333Z,8.48
2023-02-19T21:01:31.737Z,8.27
2023-02-19T21:04:28.363Z,8.22
2023-02-19T21:07:07.632Z,7.87
2023-02-19T21:09:39.932Z,7.95
2023-02-19T21:12:17.343Z,8.16
2023-02-19T21:14:53.760Z,8.10
2023-02-19T21:17:40.112Z,7.83
2023-02-19T21:20:25.082Z,7.89
2023-02-19T21:25:41.855Z,7.76
2023-02-19T21:28:31.926Z,7.79
2023-02-19T21:31:15.134Z,7.72
2023-02-19T21:33:46.486Z,7.57
2023-02-19T21:36:21.171Z,7.84
2023-02-19T21:38:55.209Z,7.97
2023-02-19T21:41:26.776Z,7.69
2023-02-19T21:44:09.893Z,7.82
2023-02-19T21:46:42.827Z,7.76
2023-02-19T21:49:14.152Z,7.81
2023-02-19T21:51:48.313Z,7.75
2023-02-19T21:54:21.447Z,7.59
2023-02-19T21:57:03.941Z,7.77
2023-02-19T21:59:49.235Z,7.81
2023-02-19T22:02:24.303Z,7.67
2023-02-19T22:04:58.675Z,7.84
2023-02-19T22:07:27.315Z,7.71
2023-02-19T22:10:00.990Z,7.76
2023-02-19T22:12:31.516Z,7.43
2023-02-19T22:15:15.566Z,7.66
2023-02-19T22:17:44.477Z,7.64
2023-02-19T22:20:17.764Z,7.38
2023-02-19T22:22:46.396Z,7.45
2023-02-19T22:25:15.960Z,7.43
2023-02-19T22:27:44.281Z,7.47
2023-02-19T22:30:32.168Z,7.35
2023-02-19T22:33:08.421Z,7.41
2023-02-19T22:35:38.100Z,7.34
2023-02-19T22:38:10.745Z,7.29
2023-02-19T22:40:52.222Z,7.37
2023-02-19T22:43:24.910Z,7.30
2023-02-19T22:45:59.127Z,7.28
2023-02-19T22:48:30.342Z,6.98
2023-02-19T22:51:02.691Z,7.24
2023-02-19T22:53:34.342Z,7.32
2023-02-19T22:56:03.093Z,7.04
2023-02-19T22:58:45.897Z,7.25
2023-02-19T23:01:18.829Z,7.22
2023-02-19T23:03:50.434Z,7.36
2023-02-19T23:06:24.790Z,7.31
2023-02-19T23:09:05.013Z,7.09
2023-02-19T23:11:37.304Z,7.23
2023-02-19T23:14:13.177Z,7.39
2023-02-19T23:16:45.821Z,7.41
2023-02-19T23:19:18.577Z,7.39
2023-02-19T23:21:50.395Z,7.28
2023-02-19T23:24:24.403Z,7.15
2023-02-19T23:26:57.970Z,7.38
2023-02-19T23:29:27.273Z,7.29
2023-02-19T23:32:07.929Z,7.09
2023-02-19T23:34:38.602Z,6.88
2023-02-19T23:37:20.136Z,7.08
2023-02-19T23:39:57.225Z,7.29
2023-02-19T23:42:27.678Z,7.21
2023-02-19T23:44:58.577Z,7.17
2023-02-19T23:47:36.559Z,7.06
2023-02-19T23:50:07.789Z,6.87
2023-02-19T23:52:45.438Z,6.74
2023-02-19T23:55:17.049Z,6.91
2023-02-19T23:57:45.361Z,6.80
